createdAt,value
2019-05-30T00:00:18.166Z,1020.07
2019-05-30T00:01:17.474Z,1020.01
2019-05-30T00:02:17.476Z,1020.06
2019-05-30T00:03:17.458Z,1020.06
2019-05-30T00:04:17.454Z,1020.00
2019-05-30T00:05:17.448Z,1020.02
2019-05-30T00:06:17.448Z,1019.98
2019-05-30T00:07:17.417Z,1019.99
2019-05-30T00:08:17.398Z,1020.07
2019-05-30T00:09:17.387Z,1020.04
2019-05-30T00:10:17.387Z,1020.02
2019-05-30T00:11:17.371Z,1020.05
2019-05-30T00:12:17.357Z,1020.09
2019-05-30T00:13:17.351Z,1020.12
2019-05-30T00:14:17.338Z,1020.11
2019-05-30T00:15:17.360Z,1020.11
2019-05-30T00:16:17.316Z,1020.15
2019-05-30T00:17:17.308Z,1020.15
2019-05-30T00:18:17.296Z,1020.12
2019-05-30T00:19:17.283Z,1020.14
2019-05-30T00:20:17.278Z,1020.17
2019-05-30T00:21:17.268Z,1020.17
2019-05-30T00:22:17.255Z,1020.17
2019-05-30T00:23:17.243Z,1020.16
2019-05-30T00:24:17.230Z,1020.20
2019-05-30T00:25:17.221Z,1020.16
2019-05-30T00:26:17.228Z,1020.18
2019-05-30T00:27:17.208Z,1020.18
2019-05-30T00:28:17.187Z,1020.14
2019-05-30T00:29:17.176Z,1020.15
2019-05-30T00:30:24.345Z,1020.15
2019-05-30T00:31:18.161Z,1020.22
2019-05-30T00:32:17.144Z,1020.18
2019-05-30T00:33:17.132Z,1020.14
2019-05-30T00:34:17.115Z,1020.17
2019-05-30T00:35:17.120Z,1020.18
2019-05-30T00:36:17.119Z,1020.17
2019-05-30T00:37:17.089Z,1020.14
2019-05-30T00:38:17.076Z,1020.13
2019-05-30T00:39:17.068Z,1020.17
2019-05-30T00:40:17.054Z,1020.16
2019-05-30T00:41:17.042Z,1020.14
2019-05-30T00:42:17.042Z,1020.16
2019-05-30T00:43:17.016Z,1020.18
2019-05-30T00:44:17.010Z,1020.19
2019-05-30T00:45:20.846Z,1020.20
2019-05-30T00:46:16.988Z,1020.18
2019-05-30T00:47:16.987Z,1020.16
2019-05-30T00:48:16.989Z,1020.12
2019-05-30T00:49:16.951Z,1020.15
2019-05-30T00:50:16.943Z,1020.10
2019-05-30T00:51:16.928Z,1020.15
2019-05-30T00:52:16.923Z,1020.11
2019-05-30T00:53:16.905Z,1020.13
2019-05-30T00:54:16.918Z,1020.13
2019-05-30T00:55:16.884Z,1020.17
2019-05-30T00:56:16.879Z,1020.12
2019-05-30T00:57:16.878Z,1020.16
2019-05-30T00:58:16.850Z,1020.18
2019-05-30T00:59:16.854Z,1020.12
2019-05-30T01:00:16.829Z,1020.14
2019-05-30T01:01:16.823Z,1020.13
2019-05-30T01:02:16.811Z,1020.19
2019-05-30T01:03:16.800Z,1020.13
2019-05-30T01:04:16.798Z,1020.11
2019-05-30T01:05:16.774Z,1020.15
2019-05-30T01:06:16.763Z,1020.15
2019-05-30T01:07:16.752Z,1020.16
2019-05-30T01:08:16.739Z,1020.18
2019-05-30T01:09:16.738Z,1020.14
2019-05-30T01:10:16.724Z,1020.15
2019-05-30T01:11:16.709Z,1020.13
2019-05-30T01:12:16.703Z,1020.14
2019-05-30T01:13:16.683Z,1020.15
2019-05-30T01:14:16.677Z,1020.12
2019-05-30T01:15:16.674Z,1020.12
2019-05-30T01:16:16.652Z,1020.10
2019-05-30T01:17:16.646Z,1020.11
2019-05-30T01:18:16.635Z,1020.08
2019-05-30T01:19:16.618Z,1020.09
2019-05-30T01:20:16.690Z,1020.10
2019-05-30T01:21:16.598Z,1020.06
2019-05-30T01:22:16.587Z,1020.05
2019-05-30T01:23:16.578Z,1020.06
2019-05-30T01:24:16.564Z,1020.09
2019-05-30T01:25:16.554Z,1020.07
2019-05-30T01:26:16.556Z,1020.11
2019-05-30T01:27:16.529Z,1020.08
2019-05-30T01:28:16.521Z,1020.09
2019-05-30T01:29:16.513Z,1020.09
2019-05-30T01:30:16.500Z,1020.10
2019-05-30T01:31:16.497Z,1020.09
2019-05-30T01:32:16.491Z,1020.08
2019-05-30T01:33:16.465Z,1020.12
2019-05-30T01:34:16.456Z,1020.05
2019-05-30T01:35:16.451Z,1020.10
2019-05-30T01:36:16.441Z,1020.08
2019-05-30T01:37:16.434Z,1020.06
2019-05-30T01:38:16.410Z,1020.11
2019-05-30T01:39:16.399Z,1020.08
2019-05-30T01:40:16.387Z,1020.10
2019-05-30T01:41:17.655Z,1020.17
2019-05-30T01:42:16.375Z,1020.15
2019-05-30T01:43:16.359Z,1020.14
2019-05-30T01:44:16.343Z,1020.14
2019-05-30T01:45:16.344Z,1020.16
2019-05-30T01:46:16.327Z,1020.11
2019-05-30T01:47:16.345Z,1020.08
2019-05-30T01:48:16.299Z,1020.17
2019-05-30T01:49:16.292Z,1020.15
2019-05-30T01:50:16.283Z,1020.13
2019-05-30T01:51:16.277Z,1020.16
2019-05-30T01:52:16.261Z,1020.16
2019-05-30T01:53:16.269Z,1020.14
2019-05-30T01:54:16.237Z,1020.16
2019-05-30T01:55:16.223Z,1020.17
2019-05-30T01:56:16.216Z,1020.10
2019-05-30T01:57:16.202Z,1020.10
2019-05-30T01:58:16.204Z,1020.15
2019-05-30T01:59:16.203Z,1020.14
2019-05-30T02:00:21.105Z,1020.10
2019-05-30T02:01:24.794Z,1020.11
2019-05-30T02:02:17.157Z,1020.10
2019-05-30T02:03:16.134Z,1020.10
2019-05-30T02:04:16.128Z,1020.11
2019-05-30T02:05:16.124Z,1020.09
2019-05-30T02:06:16.110Z,1020.08
2019-05-30T02:07:16.099Z,1020.11
2019-05-30T02:08:16.083Z,1020.10
2019-05-30T02:09:16.100Z,1020.10
2019-05-30T02:10:16.068Z,1020.14
2019-05-30T02:11:16.052Z,1020.09
2019-05-30T02:12:16.062Z,1020.14
2019-05-30T02:13:16.027Z,1020.10
2019-05-30T02:14:16.013Z,1020.12
2019-05-30T02:15:16.007Z,1020.06
2019-05-30T02:16:16.009Z,1020.08
2019-05-30T02:17:15.988Z,1020.02
2019-05-30T02:18:15.975Z,1020.06
2019-05-30T02:19:15.960Z,1020.03
2019-05-30T02:20:15.950Z,1020.05
2019-05-30T02:21:15.969Z,1020.05
2019-05-30T02:22:15.939Z,1020.01
2019-05-30T02:23:15.920Z,1020.03
2019-05-30T02:24:15.967Z,1020.06
2019-05-30T02:25:15.896Z,1020.09
2019-05-30T02:26:15.907Z,1020.14
2019-05-30T02:27:15.884Z,1020.07
2019-05-30T02:28:15.878Z,1020.10
2019-05-30T02:29:15.856Z,1020.12
2019-05-30T02:30:15.844Z,1020.09
2019-05-30T02:31:15.858Z,1020.11
2019-05-30T02:32:15.828Z,1020.11
2019-05-30T02:33:15.807Z,1020.13
2019-05-30T02:34:15.797Z,1020.10
2019-05-30T02:35:15.794Z,1020.08
2019-05-30T02:36:15.776Z,1020.09
2019-05-30T02:37:15.779Z,1020.14
2019-05-30T02:38:15.766Z,1020.09
2019-05-30T02:39:15.742Z,1020.14
2019-05-30T02:40:15.739Z,1020.18
2019-05-30T02:41:15.734Z,1020.16
2019-05-30T02:42:15.747Z,1020.16
2019-05-30T02:43:15.701Z,1020.21
2019-05-30T02:44:15.685Z,1020.20
2019-05-30T02:45:15.679Z,1020.19
2019-05-30T02:46:15.672Z,1020.26
2019-05-30T02:47:15.660Z,1020.27
2019-05-30T02:48:15.659Z,1020.26
2019-05-30T02:49:15.651Z,1020.28
2019-05-30T02:50:15.623Z,1020.24
2019-05-30T02:51:15.617Z,1020.24
2019-05-30T02:52:15.609Z,1020.23
2019-05-30T02:53:15.626Z,1020.23
2019-05-30T02:54:15.581Z,1020.24
2019-05-30T02:55:15.566Z,1020.25
2019-05-30T02:56:15.553Z,1020.33
2019-05-30T02:57:15.549Z,1020.26
2019-05-30T02:58:15.542Z,1020.33
2019-05-30T02:59:15.555Z,1020.36
2019-05-30T03:00:17.724Z,1020.36
2019-05-30T03:01:15.505Z,1020.40
2019-05-30T03:02:17.622Z,1020.41
2019-05-30T03:03:15.486Z,1020.42
2019-05-30T03:04:15.488Z,1020.39
2019-05-30T03:05:15.538Z,1020.44
2019-05-30T03:06:15.445Z,1020.43
2019-05-30T03:07:15.436Z,1020.42
2019-05-30T03:08:15.464Z,1020.44
2019-05-30T03:09:15.425Z,1020.46
2019-05-30T03:10:15.640Z,1020.48
2019-05-30T03:11:15.747Z,1020.42
2019-05-30T03:12:15.376Z,1020.46
2019-05-30T03:13:15.376Z,1020.47
2019-05-30T03:14:19.510Z,1020.48
2019-05-30T03:15:16.041Z,1020.43
2019-05-30T03:16:15.346Z,1020.43
2019-05-30T03:17:15.337Z,1020.45
2019-05-30T03:18:15.523Z,1020.48
2019-05-30T03:19:15.335Z,1020.48
2019-05-30T03:20:22.701Z,1020.48
2019-05-30T03:21:16.311Z,1020.51
2019-05-30T03:22:15.274Z,1020.56
2019-05-30T03:23:15.268Z,1020.55
2019-05-30T03:24:15.250Z,1020.55
2019-05-30T03:25:16.099Z,1020.58
2019-05-30T03:26:16.175Z,1020.56
2019-05-30T03:27:15.232Z,1020.53
2019-05-30T03:28:15.209Z,1020.55
2019-05-30T03:29:15.201Z,1020.56
2019-05-30T03:30:25.569Z,1020.56
2019-05-30T03:31:26.690Z,1020.52
2019-05-30T03:32:59.326Z,1020.55
2019-05-30T03:33:36.290Z,1020.51
2019-05-30T03:34:26.253Z,1020.51
2019-05-30T03:35:27.922Z,1020.49
2019-05-30T03:36:28.409Z,1020.53
2019-05-30T03:37:26.531Z,1020.53
2019-05-30T03:38:16.140Z,1020.49
2019-05-30T03:39:15.585Z,1020.48
2019-05-30T03:40:15.076Z,1020.48
2019-05-30T03:41:15.097Z,1020.51
2019-05-30T03:42:15.922Z,1020.50
2019-05-30T03:43:16.056Z,1020.54
2019-05-30T03:44:15.669Z,1020.57
2019-05-30T03:45:16.549Z,1020.60
2019-05-30T03:46:15.136Z,1020.56
2019-05-30T03:47:15.537Z,1020.55
2019-05-30T03:48:16.236Z,1020.57
2019-05-30T03:49:15.198Z,1020.58
2019-05-30T03:50:17.501Z,1020.59
2019-05-30T03:51:15.221Z,1020.59
2019-05-30T03:52:17.081Z,1020.61
2019-05-30T03:53:16.242Z,1020.64
2019-05-30T03:54:16.060Z,1020.62
2019-05-30T03:55:16.509Z,1020.64
2019-05-30T03:56:15.937Z,1020.58
2019-05-30T03:57:15.608Z,1020.61
2019-05-30T03:58:16.659Z,1020.63
2019-05-30T03:59:15.872Z,1020.64
2019-05-30T04:00:16.095Z,1020.64
2019-05-30T04:01:15.026Z,1020.66
2019-05-30T04:02:15.708Z,1020.60
2019-05-30T04:03:15.585Z,1020.65
2019-05-30T04:04:16.758Z,1020.63
2019-05-30T04:05:16.049Z,1020.62
2019-05-30T04:06:16.462Z,1020.63
2019-05-30T04:07:15.800Z,1020.59
2019-05-30T04:08:16.230Z,1020.63
2019-05-30T04:09:21.397Z,1020.61
2019-05-30T04:10:15.864Z,1020.69
2019-05-30T04:11:16.616Z,1020.68
2019-05-30T04:12:16.489Z,1020.66
2019-05-30T04:13:16.850Z,1020.67
2019-05-30T04:14:15.736Z,1020.68
2019-05-30T04:15:16.641Z,1020.68
2019-05-30T04:16:15.759Z,1020.65
2019-05-30T04:17:16.026Z,1020.68
2019-05-30T04:18:16.420Z,1020.64
2019-05-30T04:19:15.614Z,1020.60
2019-05-30T04:20:19.678Z,1020.61
2019-05-30T04:21:18.543Z,1020.60
2019-05-30T04:22:15.624Z,1020.63
2019-05-30T04:23:15.323Z,1020.62
2019-05-30T04:24:16.287Z,1020.60
2019-05-30T04:25:14.593Z,1020.62
2019-05-30T04:26:15.871Z,1020.64
2019-05-30T04:27:16.066Z,1020.65
2019-05-30T04:28:16.120Z,1020.62
2019-05-30T04:29:16.610Z,1020.62
2019-05-30T04:30:16.200Z,1020.61
2019-05-30T04:31:15.032Z,1020.56
2019-05-30T04:32:14.540Z,1020.58
2019-05-30T04:33:25.705Z,1020.60
2019-05-30T04:34:17.198Z,1020.61
2019-05-30T04:35:14.714Z,1020.61
2019-05-30T04:36:14.704Z,1020.61
2019-05-30T04:37:14.939Z,1020.66
2019-05-30T04:38:14.774Z,1020.61
2019-05-30T04:39:15.175Z,1020.63
2019-05-30T04:40:15.445Z,1020.62
2019-05-30T04:41:15.985Z,1020.68
2019-05-30T04:42:16.243Z,1020.69
2019-05-30T04:43:15.530Z,1020.61
2019-05-30T04:44:16.083Z,1020.64
2019-05-30T04:45:15.972Z,1020.62
2019-05-30T04:46:16.160Z,1020.65
2019-05-30T04:47:15.977Z,1020.65
2019-05-30T04:48:15.873Z,1020.66
2019-05-30T04:49:14.960Z,1020.64
2019-05-30T04:50:14.415Z,1020.64
2019-05-30T04:51:14.956Z,1020.68
2019-05-30T04:52:19.825Z,1020.70
2019-05-30T04:53:16.313Z,1020.66
2019-05-30T04:54:15.160Z,1020.64
2019-05-30T04:55:16.040Z,1020.66
2019-05-30T04:56:14.614Z,1020.59
2019-05-30T04:57:14.898Z,1020.64
2019-05-30T04:58:15.420Z,1020.65
2019-05-30T04:59:15.307Z,1020.66
2019-05-30T05:00:15.237Z,1020.64
2019-05-30T05:01:15.511Z,1020.68
2019-05-30T05:02:15.782Z,1020.71
2019-05-30T05:03:15.471Z,1020.71
2019-05-30T05:04:15.544Z,1020.68
2019-05-30T05:05:19.974Z,1020.67
2019-05-30T05:06:15.783Z,1020.66
2019-05-30T05:07:15.557Z,1020.65
2019-05-30T05:08:15.715Z,1020.67
2019-05-30T05:09:14.133Z,1020.65
2019-05-30T05:10:14.081Z,1020.62
2019-05-30T05:11:16.557Z,1020.66
2019-05-30T05:12:16.114Z,1020.61
2019-05-30T05:13:14.216Z,1020.61
2019-05-30T05:14:14.413Z,1020.58
2019-05-30T05:15:14.361Z,1020.61
2019-05-30T05:16:29.428Z,1020.57
2019-05-30T05:17:15.012Z,1020.58
2019-05-30T05:18:14.987Z,1020.58
2019-05-30T05:19:14.878Z,1020.58
2019-05-30T05:20:15.207Z,1020.53
2019-05-30T05:21:14.701Z,1020.56
2019-05-30T05:22:14.841Z,1020.55
2019-05-30T05:23:14.989Z,1020.54
2019-05-30T05:24:15.226Z,1020.61
2019-05-30T05:25:13.923Z,1020.60
2019-05-30T05:26:13.911Z,1020.55
2019-05-30T05:27:13.894Z,1020.53
2019-05-30T05:28:13.883Z,1020.56
2019-05-30T05:29:14.064Z,1020.53
2019-05-30T05:30:14.021Z,1020.53
2019-05-30T05:31:14.457Z,1020.51
2019-05-30T05:32:14.114Z,1020.54
2019-05-30T05:33:14.568Z,1020.54
2019-05-30T05:34:14.479Z,1020.51
2019-05-30T05:35:14.754Z,1020.55
2019-05-30T05:36:14.887Z,1020.53
2019-05-30T05:37:14.862Z,1020.57
2019-05-30T05:38:13.779Z,1020.57
2019-05-30T05:39:13.769Z,1020.56
2019-05-30T05:40:13.755Z,1020.58
2019-05-30T05:41:13.755Z,1020.61
2019-05-30T05:42:13.734Z,1020.61
2019-05-30T05:43:13.719Z,1020.56
2019-05-30T05:44:13.707Z,1020.58
2019-05-30T05:45:13.702Z,1020.63
2019-05-30T05:46:13.703Z,1020.60
2019-05-30T05:47:13.675Z,1020.65
2019-05-30T05:48:13.668Z,1020.64
2019-05-30T05:49:13.653Z,1020.67
2019-05-30T05:50:13.651Z,1020.70
2019-05-30T05:51:13.645Z,1020.64
2019-05-30T05:52:13.632Z,1020.65
2019-05-30T05:53:13.618Z,1020.63
2019-05-30T05:54:13.599Z,1020.62
2019-05-30T05:55:13.591Z,1020.61
2019-05-30T05:56:13.592Z,1020.62
2019-05-30T05:57:13.570Z,1020.59
2019-05-30T05:58:13.568Z,1020.58
2019-05-30T05:59:13.563Z,1020.61
2019-05-30T06:00:13.532Z,1020.60
2019-05-30T06:01:13.521Z,1020.59
2019-05-30T06:02:13.714Z,1020.61
2019-05-30T06:03:13.505Z,1020.63
2019-05-30T06:04:13.825Z,1020.62
2019-05-30T06:05:13.491Z,1020.68
2019-05-30T06:06:13.477Z,1020.63
2019-05-30T06:07:13.472Z,1020.57
2019-05-30T06:08:13.444Z,1020.58
2019-05-30T06:09:13.464Z,1020.57
2019-05-30T06:10:13.451Z,1020.61
2019-05-30T06:11:13.410Z,1020.57
2019-05-30T06:12:13.407Z,1020.56
2019-05-30T06:13:13.388Z,1020.54
2019-05-30T06:14:13.379Z,1020.59
2019-05-30T06:15:13.419Z,1020.57
2019-05-30T06:16:13.363Z,1020.52
2019-05-30T06:17:13.349Z,1020.58
2019-05-30T06:18:13.339Z,1020.54
2019-05-30T06:19:13.323Z,1020.58
2019-05-30T06:20:13.349Z,1020.57
2019-05-30T06:21:13.320Z,1020.60
2019-05-30T06:22:13.293Z,1020.65
2019-05-30T06:23:13.285Z,1020.68
2019-05-30T06:24:13.300Z,1020.60
2019-05-30T06:25:13.267Z,1020.65
2019-05-30T06:26:13.259Z,1020.61
2019-05-30T06:27:13.244Z,1020.56
2019-05-30T06:28:13.232Z,1020.55
2019-05-30T06:29:13.220Z,1020.63
2019-05-30T06:30:13.249Z,1020.53
2019-05-30T06:31:13.211Z,1020.54
2019-05-30T06:32:13.184Z,1020.54
2019-05-30T06:33:13.171Z,1020.54
2019-05-30T06:34:28.367Z,1020.57
2019-05-30T06:35:14.166Z,1020.59
2019-05-30T06:36:13.139Z,1020.53
2019-05-30T06:37:13.131Z,1020.57
2019-05-30T06:38:13.120Z,1020.56
2019-05-30T06:39:13.138Z,1020.58
2019-05-30T06:40:13.111Z,1020.57
2019-05-30T06:41:13.084Z,1020.55
2019-05-30T06:42:13.071Z,1020.54
2019-05-30T06:43:13.062Z,1020.55
2019-05-30T06:44:13.057Z,1020.59
2019-05-30T06:45:13.075Z,1020.53
2019-05-30T06:46:13.030Z,1020.55
2019-05-30T06:47:13.023Z,1020.54
2019-05-30T06:48:13.014Z,1020.58
2019-05-30T06:49:12.996Z,1020.63
2019-05-30T06:50:12.993Z,1020.57
2019-05-30T06:51:14.705Z,1020.59
2019-05-30T06:52:12.972Z,1020.58
2019-05-30T06:53:12.991Z,1020.57
2019-05-30T06:54:12.942Z,1020.52
2019-05-30T06:55:12.930Z,1020.55
2019-05-30T06:56:12.945Z,1020.54
2019-05-30T06:57:12.922Z,1020.57
2019-05-30T06:58:12.903Z,1020.56
2019-05-30T06:59:12.892Z,1020.56
2019-05-30T07:00:12.883Z,1020.54
2019-05-30T07:01:12.875Z,1020.61
2019-05-30T07:02:12.868Z,1020.60
2019-05-30T07:03:12.913Z,1020.60
2019-05-30T07:04:13.255Z,1020.55
2019-05-30T07:05:13.532Z,1020.55
2019-05-30T07:06:13.292Z,1020.50
2019-05-30T07:07:12.949Z,1020.45
2019-05-30T07:08:12.790Z,1020.43
2019-05-30T07:09:12.779Z,1020.45
2019-05-30T07:10:12.793Z,1020.47
2019-05-30T07:11:12.851Z,1020.43
2019-05-30T07:12:12.825Z,1020.43
2019-05-30T07:13:12.901Z,1020.43
2019-05-30T07:14:12.740Z,1020.41
2019-05-30T07:15:12.714Z,1020.36
2019-05-30T07:16:12.729Z,1020.36
2019-05-30T07:17:12.688Z,1020.36
2019-05-30T07:18:12.710Z,1020.33
2019-05-30T07:19:12.673Z,1020.37
2019-05-30T07:20:12.665Z,1020.34
2019-05-30T07:21:12.658Z,1020.34
2019-05-30T07:22:12.634Z,1020.33
2019-05-30T07:23:12.632Z,1020.33
2019-05-30T07:24:12.911Z,1020.38
2019-05-30T07:25:12.605Z,1020.34
2019-05-30T07:26:12.598Z,1020.36
2019-05-30T07:27:12.584Z,1020.37
2019-05-30T07:28:12.571Z,1020.36
2019-05-30T07:29:12.583Z,1020.37
2019-05-30T07:30:12.593Z,1020.36
2019-05-30T07:31:12.540Z,1020.34
2019-05-30T07:32:13.461Z,1020.34
2019-05-30T07:33:12.518Z,1020.31
2019-05-30T07:34:12.510Z,1020.39
2019-05-30T07:35:12.500Z,1020.34
2019-05-30T07:36:12.500Z,1020.31
2019-05-30T07:37:12.479Z,1020.29
2019-05-30T07:38:12.465Z,1020.34
2019-05-30T07:39:12.470Z,1020.33
2019-05-30T07:40:12.484Z,1020.29
2019-05-30T07:41:12.435Z,1020.34
2019-05-30T07:42:12.419Z,1020.38
2019-05-30T07:43:12.413Z,1020.42
2019-05-30T07:44:12.409Z,1020.35
2019-05-30T07:45:12.386Z,1020.38
2019-05-30T07:46:12.388Z,1020.39
2019-05-30T07:47:12.373Z,1020.38
2019-05-30T07:48:12.359Z,1020.31
2019-05-30T07:49:13.108Z,1020.39
2019-05-30T07:50:12.369Z,1020.38
2019-05-30T07:51:12.322Z,1020.33
2019-05-30T07:52:12.327Z,1020.38
2019-05-30T07:53:12.301Z,1020.35
2019-05-30T07:54:12.292Z,1020.39
2019-05-30T07:55:12.296Z,1020.35
2019-05-30T07:56:12.283Z,1020.34
2019-05-30T07:57:12.262Z,1020.37
2019-05-30T07:58:12.246Z,1020.38
2019-05-30T07:59:12.245Z,1020.44
2019-05-30T08:00:12.233Z,1020.42
2019-05-30T08:01:12.250Z,1020.43
2019-05-30T08:02:12.210Z,1020.51
2019-05-30T08:03:12.199Z,1020.47
2019-05-30T08:04:12.182Z,1020.46
2019-05-30T08:05:23.421Z,1020.55
2019-05-30T08:06:13.208Z,1020.47
2019-05-30T08:07:12.165Z,1020.49
2019-05-30T08:08:12.148Z,1020.51
2019-05-30T08:09:12.135Z,1020.53
2019-05-30T08:10:12.125Z,1020.51
2019-05-30T08:11:12.109Z,1020.52
2019-05-30T08:12:12.116Z,1020.58
2019-05-30T08:13:12.105Z,1020.49
2019-05-30T08:14:12.088Z,1020.56
2019-05-30T08:15:12.069Z,1020.64
2019-05-30T08:16:12.062Z,1020.59
2019-05-30T08:17:12.093Z,1020.61
2019-05-30T08:18:12.035Z,1020.60
2019-05-30T08:19:12.022Z,1020.58
2019-05-30T08:20:12.013Z,1020.63
2019-05-30T08:21:12.004Z,1020.65
2019-05-30T08:22:11.999Z,1020.58
2019-05-30T08:23:12.030Z,1020.55
2019-05-30T08:24:11.980Z,1020.62
2019-05-30T08:25:11.968Z,1020.62
2019-05-30T08:26:11.951Z,1020.66
2019-05-30T08:27:11.948Z,1020.57
2019-05-30T08:28:11.933Z,1020.58
2019-05-30T08:29:11.946Z,1020.58
2019-05-30T08:30:11.907Z,1020.67
2019-05-30T08:31:11.906Z,1020.67
2019-05-30T08:32:11.892Z,1020.60
2019-05-30T08:33:11.907Z,1020.65
2019-05-30T08:34:11.872Z,1020.63
2019-05-30T08:35:11.864Z,1020.57
2019-05-30T08:36:11.849Z,1020.60
2019-05-30T08:37:11.837Z,1020.56
2019-05-30T08:38:11.833Z,1020.53
2019-05-30T08:39:11.879Z,1020.60
2019-05-30T08:40:11.809Z,1020.60
2019-05-30T08:41:11.797Z,1020.61
2019-05-30T08:42:11.789Z,1020.59
2019-05-30T08:43:11.778Z,1020.50
2019-05-30T08:44:11.852Z,1020.54
2019-05-30T08:45:11.770Z,1020.49
2019-05-30T08:46:11.750Z,1020.56
2019-05-30T08:47:11.777Z,1020.52
2019-05-30T08:48:11.728Z,1020.61
2019-05-30T08:49:11.731Z,1020.58
2019-05-30T08:50:11.714Z,1020.55
2019-05-30T08:51:11.698Z,1020.54
2019-05-30T08:52:11.689Z,1020.55
2019-05-30T08:53:11.680Z,1020.62
2019-05-30T08:54:13.909Z,1020.56
2019-05-30T08:55:11.761Z,1020.59
2019-05-30T08:56:11.647Z,1020.57
2019-05-30T08:57:11.641Z,1020.58
2019-05-30T08:58:11.629Z,1020.62
2019-05-30T08:59:11.615Z,1020.57
2019-05-30T09:00:11.607Z,1020.57
2019-05-30T09:01:11.631Z,1020.53
2019-05-30T09:02:11.606Z,1020.52
2019-05-30T09:03:11.578Z,1020.60
2019-05-30T09:04:11.569Z,1020.51
2019-05-30T09:05:11.562Z,1020.57
2019-05-30T09:06:11.559Z,1020.59
2019-05-30T09:07:11.543Z,1020.54
2019-05-30T09:08:11.529Z,1020.50
2019-05-30T09:09:11.523Z,1020.44
2019-05-30T09:10:11.514Z,1020.51
2019-05-30T09:11:11.513Z,1020.47
2019-05-30T09:12:11.486Z,1020.51
2019-05-30T09:13:11.482Z,1020.50
2019-05-30T09:14:11.477Z,1020.54
2019-05-30T09:15:11.485Z,1020.52
2019-05-30T09:16:11.470Z,1020.43
2019-05-30T09:17:11.446Z,1020.45
2019-05-30T09:18:11.432Z,1020.36
2019-05-30T09:19:11.438Z,1020.52
2019-05-30T09:20:11.425Z,1020.49
2019-05-30T09:21:11.408Z,1020.45
2019-05-30T09:22:11.398Z,1020.47
2019-05-30T09:23:11.387Z,1020.47
2019-05-30T09:24:11.437Z,1020.49
2019-05-30T09:25:11.371Z,1020.43
2019-05-30T09:26:11.358Z,1020.39
2019-05-30T09:27:11.352Z,1020.41
2019-05-30T09:28:11.348Z,1020.41
2019-05-30T09:29:11.330Z,1020.43
2019-05-30T09:30:11.323Z,1020.48
2019-05-30T09:31:11.314Z,1020.49
2019-05-30T09:32:11.654Z,1020.47
2019-05-30T09:33:11.296Z,1020.41
2019-05-30T09:34:12.115Z,1020.48
2019-05-30T09:35:11.283Z,1020.50
2019-05-30T09:36:13.560Z,1020.43
2019-05-30T09:37:11.274Z,1020.46
2019-05-30T09:38:11.276Z,1020.44
2019-05-30T09:39:11.258Z,1020.43
2019-05-30T09:40:11.248Z,1020.46
2019-05-30T09:41:11.223Z,1020.38
2019-05-30T09:42:11.255Z,1020.47
2019-05-30T09:43:11.213Z,1020.51
2019-05-30T09:44:11.198Z,1020.38
2019-05-30T09:45:11.193Z,1020.34
2019-05-30T09:46:11.179Z,1020.34
2019-05-30T09:47:11.174Z,1020.42
2019-05-30T09:48:11.169Z,1020.35
2019-05-30T09:49:11.153Z,1020.34
2019-05-30T09:50:11.156Z,1020.31
2019-05-30T09:51:11.136Z,1020.29
2019-05-30T09:52:11.132Z,1020.26
2019-05-30T09:53:11.125Z,1020.33
2019-05-30T09:54:11.130Z,1020.34
2019-05-30T09:55:11.098Z,1020.33
2019-05-30T09:56:11.091Z,1020.33
2019-05-30T09:57:11.105Z,1020.30
2019-05-30T09:58:11.078Z,1020.26
2019-05-30T09:59:11.080Z,1020.32
2019-05-30T10:00:11.069Z,1020.33
2019-05-30T10:01:11.081Z,1020.35
2019-05-30T10:02:11.051Z,1020.31
2019-05-30T10:03:11.119Z,1020.27
2019-05-30T10:04:11.067Z,1020.39
2019-05-30T10:05:11.073Z,1020.34
2019-05-30T10:06:11.007Z,1020.36
2019-05-30T10:07:10.998Z,1020.36
2019-05-30T10:08:11.015Z,1020.31
2019-05-30T10:09:11.015Z,1020.20
2019-05-30T10:10:10.973Z,1020.19
2019-05-30T10:11:11.021Z,1020.38
2019-05-30T10:12:10.955Z,1020.26
2019-05-30T10:13:10.939Z,1020.22
2019-05-30T10:14:11.006Z,1020.22
2019-05-30T10:15:10.953Z,1020.14
2019-05-30T10:16:10.913Z,1020.11
2019-05-30T10:17:10.984Z,1020.08
2019-05-30T10:18:10.902Z,1020.15
2019-05-30T10:19:10.911Z,1020.14
2019-05-30T10:20:10.910Z,1020.17
2019-05-30T10:21:10.923Z,1020.13
2019-05-30T10:22:10.863Z,1020.17
2019-05-30T10:23:10.860Z,1020.12
2019-05-30T10:24:10.878Z,1020.02
2019-05-30T10:25:10.827Z,1019.98
2019-05-30T10:26:10.864Z,1019.98
2019-05-30T10:27:10.803Z,1019.95
2019-05-30T10:28:10.800Z,1019.95
2019-05-30T10:29:10.788Z,1019.94
2019-05-30T10:30:10.783Z,1019.92
2019-05-30T10:31:10.776Z,1019.93
2019-05-30T10:32:10.783Z,1019.98
2019-05-30T10:33:10.750Z,1020.07
2019-05-30T10:34:10.740Z,1019.92
2019-05-30T10:35:10.730Z,1020.08
2019-05-30T10:36:14.532Z,1019.91
2019-05-30T10:37:10.711Z,1019.92
2019-05-30T10:38:10.719Z,1019.97
2019-05-30T10:39:10.695Z,1019.85
2019-05-30T10:40:10.682Z,1019.86
2019-05-30T10:41:10.676Z,1019.79
2019-05-30T10:42:10.681Z,1019.79
2019-05-30T10:43:10.666Z,1019.80
2019-05-30T10:44:10.656Z,1019.80
2019-05-30T10:45:10.645Z,1019.74
2019-05-30T10:46:10.631Z,1019.73
2019-05-30T10:47:10.627Z,1019.76
2019-05-30T10:48:10.624Z,1019.78
2019-05-30T10:49:10.613Z,1019.78
2019-05-30T10:50:10.600Z,1019.74
2019-05-30T10:51:10.613Z,1019.74
2019-05-30T10:52:10.576Z,1019.78
2019-05-30T10:53:10.566Z,1019.76
2019-05-30T10:54:10.591Z,1019.73
2019-05-30T10:55:10.548Z,1019.64
2019-05-30T10:56:10.535Z,1019.53
2019-05-30T10:57:10.520Z,1019.58
2019-05-30T10:58:10.513Z,1019.57
2019-05-30T10:59:10.507Z,1019.58
2019-05-30T11:00:11.470Z,1019.51
2019-05-30T11:01:10.484Z,1019.52
2019-05-30T11:02:10.481Z,1019.52
2019-05-30T11:03:10.473Z,1019.58
2019-05-30T11:04:10.465Z,1019.47
2019-05-30T11:05:10.448Z,1019.54
2019-05-30T11:06:10.450Z,1019.45
2019-05-30T11:07:12.022Z,1019.49
2019-05-30T11:08:10.429Z,1019.38
2019-05-30T11:09:10.412Z,1019.36
2019-05-30T11:10:10.427Z,1019.33
2019-05-30T11:11:10.393Z,1019.25
2019-05-30T11:12:10.383Z,1019.09
2019-05-30T11:13:10.365Z,1019.04
2019-05-30T11:14:10.372Z,1018.93
2019-05-30T11:15:10.358Z,1018.77
2019-05-30T11:16:10.354Z,1018.97
2019-05-30T11:17:10.329Z,1018.73
2019-05-30T11:18:10.324Z,1018.66
2019-05-30T11:19:10.313Z,1018.57
2019-05-30T11:20:10.304Z,1018.53
2019-05-30T11:21:10.305Z,1018.54
2019-05-30T11:22:10.295Z,1018.53
2019-05-30T11:23:10.271Z,1018.57
2019-05-30T11:24:10.262Z,1018.51
2019-05-30T11:25:10.248Z,1018.53
2019-05-30T11:26:10.258Z,1018.52
2019-05-30T11:27:10.228Z,1018.49
2019-05-30T11:28:10.232Z,1018.45
2019-05-30T11:29:10.211Z,1018.49
2019-05-30T11:30:10.200Z,1018.46
2019-05-30T11:31:10.186Z,1018.39
2019-05-30T11:32:10.205Z,1018.40
2019-05-30T11:33:10.164Z,1018.46
2019-05-30T11:34:10.152Z,1018.42
2019-05-30T11:35:10.152Z,1018.42
2019-05-30T11:36:10.138Z,1018.42
2019-05-30T11:38:11.122Z,1018.34
2019-05-30T11:39:10.108Z,1018.34
2019-05-30T11:40:10.091Z,1018.36
2019-05-30T11:41:10.088Z,1018.37
2019-05-30T11:42:10.077Z,1018.39
2019-05-30T11:43:10.075Z,1018.35
2019-05-30T11:44:10.068Z,1018.32
2019-05-30T11:45:10.044Z,1018.24
2019-05-30T11:46:10.028Z,1018.32
2019-05-30T11:47:10.020Z,1018.33
2019-05-30T11:48:10.012Z,1018.39
2019-05-30T11:49:10.002Z,1018.35
2019-05-30T11:50:12.969Z,1018.36
2019-05-30T11:51:09.979Z,1018.24
2019-05-30T11:52:09.964Z,1018.21
2019-05-30T11:53:09.959Z,1018.19
2019-05-30T11:54:09.944Z,1018.27
2019-05-30T11:55:09.956Z,1018.29
2019-05-30T11:56:09.934Z,1018.25
2019-05-30T11:57:09.919Z,1018.28
2019-05-30T11:58:09.904Z,1018.28
2019-05-30T11:59:09.891Z,1018.23
2019-05-30T12:00:09.882Z,1018.27
2019-05-30T12:01:09.879Z,1018.26
2019-05-30T12:02:09.861Z,1018.21
2019-05-30T12:03:09.863Z,1018.25
2019-05-30T12:04:09.860Z,1018.22
2019-05-30T12:05:09.831Z,1018.16
2019-05-30T12:06:09.832Z,1018.18